Latest METARs, TAFs and NOTAMs for EGGW


---------------------------------------------------------------------------
	(OBSERVATIONS)
EGGW 240250Z AUTO VRB03KT 9999 NCD 12/12 Q1015=
EGGW 240220Z AUTO 23005KT 9999 NCD 12/12 Q1015=
EGGW 240150Z AUTO 24006KT 210V270 9999 NCD 12/12 Q1015=
EGGW 240120Z AUTO 26007KT 9999 NCD 12/12 Q1015=
EGGW 240050Z AUTO 25008KT 9999 NCD 13/12 Q1015=
EGGW 240020Z AUTO 26009KT 9999 NCD 13/13 Q1015=
---------------------------------------------------------------------------
	(FC)
Sorry, FC For EGGW Not Found
---------------------------------------------------------------------------
	(TERMINAL AREA FORECAST)
EGGW 232301Z 2400/2424 25008KT 9999 FEW045 PROB30 TEMPO
    2402/2407 9000=
---------------------------------------------------------------------------
	(NOTAMS)


EGGW A1143/17 AIRFIELD CLOSED TO ALL AIRCRAFT MOVEMENTS DUE WIP.
    0001-0530, 06 NOV 00:01 2017 UNTIL 16 DEC 05:30 2017. CREATED:
    31 MAR 15:26 2017

EGGW A1275/17 AD CLOSED TO ALL MOVEMENTS DUE WIP. 0001-0530,
    06 JAN 00:01 2018 UNTIL 14 JAN 05:30 2018. CREATED: 12 APR
    13:23 2017

EGGW A1710/17 RESCUE AND FIRE FIGHTING SERVICES AMEND LINE 4
    COLUMN 3 CATEGORY 8 AND 9 AVAILABLE BY PRIOR ARRANGEMENT
    TO READ. RFF CATEGORY 8 AND 9 BY PRIOR ARRANGEMENT. RFF CATEGORY
    9 PROVIDED WITH RFFS CATEGORY 8 UNDER REMISSION AD 2.6 REFERS.
    24 MAY 09:20 2017 UNTIL PERM. CREATED: 24 MAY 09:21 2017

EGGW A1776/17 COMPASS SWING BASE AND HOLDING POINT Q1 CLOSED
    DUE AIRPORT EXPANSION WORKS. 29 MAY 17:30 2017 UNTIL 26 AUG
    23:59 2017. CREATED: 29 MAY 17:27 2017

EGGW A1805/17 STANDS 16, 17, 18, 19 REPOSITIONED AS FOLLOWS:
    16, 17, 19, 18 NORTH TO SOUTH REPOSITIONED TO 16, 17, 18,
    19 NORTH TO SOUTH. COORDINATES TO BE SURVEYED. UK AIP CHART
    AD 2-EGGW-2-2 REFERS. 01 JUN 12:44 2017 UNTIL PERM. CREATED:
    01 JUN 12:59 2017

EGGW A1905/17 SOUTH APRON EXTENDED. STANDS REPOSITIONED AS FOLLOWS:
    20, 21L, 21, 21R, 22, 23L, 23, 23R WEST TO EAST. COORDINATES
    TO BE SURVEYED. UK AIP CHART AD 2-EGGW-2-2 REFERS. 08 JUN
    08:35 2017 UNTIL PERM. CREATED: 08 JUN 08:36 2017

EGGW A1958/17 AMENDMENT TO TEXT AND CHARTS IN RELATION TO A CHANGE
    TO STAND MARKINGS ON THE NORTH APRON. NORTH APRON EXTENDED.
    STANDS REPOSITIONED AS FOLLOWS: 41R, 41, 41L, 42R 42, 42L
    WEST TO EAST. COORDINATES TO BE SURVEYED. UK AIP CHART AD
    2-EGGW-2-2 REFERS. 13 JUN 00:00 2017 UNTIL PERM. CREATED:
    12 JUN 09:20 2017

EGGW A2582/17 A ZERO FLOW RATE CAN BE EXPECTED TO ALLOW WIP TO
    CONTINUE. THE AIRPORT MAY BE MADE AVAILABLE WITH 20 MIN NOTICE
    FOLLOWING CO-ORDINATION WITH THE AIRPORT AUTHORITY. SUN-MON
    0200-0430, 13 AUG 02:00 2017 UNTIL 05 NOV 04:30 2017. CREATED:
    04 AUG 11:06 2017

EGGW A2779/17 ILS RWY 08/26 SUBJ INTERRUPTIONS OF SERVICE DUE
    MAINT. SUBJ WEATHER. 0900-1600, 23 AUG 09:00 2017 UNTIL 24
    AUG 16:00 2017. CREATED: 22 AUG 09:33 2017

EGGW H5057/17 SEARCHLIGHT DISPLAY WI 1NM RADIUS 515454N 0003950W
    (LEIGHTON BUZZARD, BEDFORDSHIRE). FOR INFO 07455021883. 2017-08-0485/
    AS2. SFC - UNL, 2000-2100, 24 AUG 20:00 2017 UNTIL 28 AUG
    21:00 2017. CREATED: 22 AUG 08:11 2017

---------------------------------------------------------------------------